Cotuit, MA (02635)

7:21 PM EDT on October 20, 2014 (GMT -0400)
WA1JSE Cape Cod | Change Station
CLOSE
Current Station
Personal Weather Station
Location: Osterville, MA
Elevation: 49 ft
Nearby Weather Stations

Elev 49 ft 41.65 °N, 70.38 °W | Updated 6 seconds ago

Mostly Cloudy
Mostly Cloudy
50.7 °F
Feels Like 50.7 °F
N
0.0
Wind Variable Wind from North
Gusts 0.0 mph

Today
High -- | Low -- °F
--% Chance of Precip.
Yesterday
High -- | Low -- °F
Precip. -- in
6:59 AM 5:52 PM
Waning Crescent, 8% visible
Pressure 30.02 in
Visibility 10.0 miles
Clouds Mostly Cloudy 18000 ft
Overcast 20000 ft
Dew Point 33 °F
Humidity 50%
Rainfall 0.00 in
Snow Depth Not available.
UV 0 out of 12
Pollen 1.20 out of 12
Ozone Good
Flu Activity No Activity
METAR KFMH 202315Z AUTO 26007KT 10SM BKN180 OVC200 11/05 A3002 RMK AO2

More Conditions Fewer Conditions

Pressure 30.02 in
Visibility 10.0 miles
Clouds Mostly Cloudy 18000 ft
Overcast 20000 ft
Dew Point 33 °F
Humidity 50%
Rainfall 0.00 in
Snow Depth Not available.
UV 0 out of 12
Pollen 1.20 out of 12
Ozone Good
Flu Activity No Activity
METAR KFMH 202315Z AUTO 26007KT 10SM BKN180 OVC200 11/05 A3002 RMK AO2

More Conditions Fewer Conditions

10-Day Weather Forecast

Almanac

Astronomy

Oct. 20, 2014 Rise Set
Actual Time 6:59 AM EDT 5:52 PM EDT
Civil Twilight 6:31 AM EDT 6:21 PM EDT
Nautical Twilight 5:58 AM EDT 6:53 PM EDT
Astronomical Twilight 5:26 AM EDT 7:25 PM EDT
Moon 3:42 AM EDT 4:16 PM EDT
Length of Visible Light 11h 49m
Length of Day
10h 53m
Tomorrow will be 2m 38s shorter.
Waning Crescent, 8% of the Moon is Illuminated
Today
Waning Crescent
Oct 23
New
Oct 30
First Quarter
Nov 6
Full
Nov 14
Last Quarter

Today's Extremes

State Highs State Lows

Community

WunderPhotos

Upload Photos

1,763,544 photos uploaded!

WunderBlogs® & News

By Dr. Jeff Masters
Director of Meteorology, Weather Underground
By Kari Strenfel
Meteorologist, Weather Underground
By Christopher C. Burt
Weather Historian, Weather Underground
October 20, 2014
October 20, 2014
October 20, 2014

Nearby

Air Quality

  Air Quality AQ Index Pollutant
Yesterday Good
OZONE
Current Good
OZONE
Monday Good
PM2.5
Monday Good
OZONE
Tuesday Good
PM2.5
Wednesday Good
PM2.5
Thursday Good
PM2.5

Snow Depth

Station Depth Elevation
No new snow has been reported.

Earthquake Activity

City Distance Mag. Time & Date
No recent earthquake activity has been reported nearby.
Minimum magnitude displayed is 2.5.

Coastal Water Temperatures

Place Temperature
Nantucket Island, MA 59.0 °F
Woods Hole, MA 62.1 °F
Fall River, MA 64.0 °F
Boston, MA 57.0 °F

Nearby Weather Stations